sensor_id;sensor_type;location;lat;lon;timestamp;temperature;humidity
7666;DHT22;3875;46.562;4.898;2022-12-18T00:00:01;-2.30;95.10
7666;DHT22;3875;46.562;4.898;2022-12-18T00:02:26;-2.30;95.10
7666;DHT22;3875;46.562;4.898;2022-12-18T00:04:52;-2.40;95.10
7666;DHT22;3875;46.562;4.898;2022-12-18T00:07:18;-2.40;95.20
7666;DHT22;3875;46.562;4.898;2022-12-18T00:09:43;-2.30;95.40
7666;DHT22;3875;46.562;4.898;2022-12-18T00:12:09;-2.30;95.40
7666;DHT22;3875;46.562;4.898;2022-12-18T00:14:35;-2.30;95.50
7666;DHT22;3875;46.562;4.898;2022-12-18T00:17:00;-2.20;95.50
7666;DHT22;3875;46.562;4.898;2022-12-18T00:19:26;-2.20;95.30
7666;DHT22;3875;46.562;4.898;2022-12-18T00:21:52;-2.20;95.10
7666;DHT22;3875;46.562;4.898;2022-12-18T00:24:18;-2.20;95.10
7666;DHT22;3875;46.562;4.898;2022-12-18T00:26:44;-2.30;95.20
7666;DHT22;3875;46.562;4.898;2022-12-18T00:29:11;-2.30;95.30
7666;DHT22;3875;46.562;4.898;2022-12-18T00:31:39;-2.30;95.50
7666;DHT22;3875;46.562;4.898;2022-12-18T00:34:05;-2.20;95.70
7666;DHT22;3875;46.562;4.898;2022-12-18T00:36:33;-2.20;95.70
7666;DHT22;3875;46.562;4.898;2022-12-18T00:39:01;-2.20;95.70
7666;DHT22;3875;46.562;4.898;2022-12-18T00:41:27;-2.10;95.60
7666;DHT22;3875;46.562;4.898;2022-12-18T00:44:14;-2.10;95.50
7666;DHT22;3875;46.562;4.898;2022-12-18T00:46:40;-2.10;95.60
7666;DHT22;3875;46.562;4.898;2022-12-18T00:49:06;-2.10;95.60
7666;DHT22;3875;46.562;4.898;2022-12-18T00:51:32;-2.10;95.70
7666;DHT22;3875;46.562;4.898;2022-12-18T00:53:58;-2.10;95.90
7666;DHT22;3875;46.562;4.898;2022-12-18T00:56:24;-2.10;95.90
7666;DHT22;3875;46.562;4.898;2022-12-18T00:58:49;-2.10;96.00
7666;DHT22;3875;46.562;4.898;2022-12-18T01:01:15;-2.10;96.10
7666;DHT22;3875;46.562;4.898;2022-12-18T01:03:41;-2.10;96.20
7666;DHT22;3875;46.562;4.898;2022-12-18T01:06:08;-2.00;96.30
7666;DHT22;3875;46.562;4.898;2022-12-18T01:08:35;-2.00;96.30
7666;DHT22;3875;46.562;4.898;2022-12-18T01:11:06;-2.00;96.30
7666;DHT22;3875;46.562;4.898;2022-12-18T01:13:32;-2.00;96.40
7666;DHT22;3875;46.562;4.898;2022-12-18T01:15:58;-2.00;96.40
7666;DHT22;3875;46.562;4.898;2022-12-18T01:18:24;-1.90;96.50
7666;DHT22;3875;46.562;4.898;2022-12-18T01:20:49;-1.90;96.40
7666;DHT22;3875;46.562;4.898;2022-12-18T01:23:15;-1.90;96.50
7666;DHT22;3875;46.562;4.898;2022-12-18T01:25:41;-1.90;96.60
7666;DHT22;3875;46.562;4.898;2022-12-18T01:28:06;-1.90;96.50
7666;DHT22;3875;46.562;4.898;2022-12-18T01:30:32;-1.80;96.50
7666;DHT22;3875;46.562;4.898;2022-12-18T01:32:58;-1.80;96.50
7666;DHT22;3875;46.562;4.898;2022-12-18T01:35:23;-1.80;96.50
7666;DHT22;3875;46.562;4.898;2022-12-18T01:37:49;-1.80;96.50
7666;DHT22;3875;46.562;4.898;2022-12-18T01:40:19;-1.80;96.60
7666;DHT22;3875;46.562;4.898;2022-12-18T01:42:44;-1.70;96.50
7666;DHT22;3875;46.562;4.898;2022-12-18T01:48:03;-1.60;96.30
7666;DHT22;3875;46.562;4.898;2022-12-18T01:50:38;-1.60;96.20
7666;DHT22;3875;46.562;4.898;2022-12-18T01:53:17;-1.60;96.10
7666;DHT22;3875;46.562;4.898;2022-12-18T01:56:02;-1.60;96.10
7666;DHT22;3875;46.562;4.898;2022-12-18T01:58:54;-1.60;96.20
7666;DHT22;3875;46.562;4.898;2022-12-18T02:01:22;-1.60;96.40
7666;DHT22;3875;46.562;4.898;2022-12-18T02:03:48;-1.60;96.40
7666;DHT22;3875;46.562;4.898;2022-12-18T02:06:37;-1.60;96.40
7666;DHT22;3875;46.562;4.898;2022-12-18T02:09:19;-1.60;96.50
7666;DHT22;3875;46.562;4.898;2022-12-18T02:28:06;-1.50;96.90
7666;DHT22;3875;46.562;4.898;2022-12-18T02:30:34;-1.50;97.20
7666;DHT22;3875;46.562;4.898;2022-12-18T02:33:04;-1.50;97.30
7666;DHT22;3875;46.562;4.898;2022-12-18T02:35:32;-1.50;97.50
7666;DHT22;3875;46.562;4.898;2022-12-18T02:37:59;-1.50;97.50
7666;DHT22;3875;46.562;4.898;2022-12-18T02:40:27;-1.40;97.40
7666;DHT22;3875;46.562;4.898;2022-12-18T02:42:54;-1.40;97.40
7666;DHT22;3875;46.562;4.898;2022-12-18T02:45:19;-1.40;97.40
7666;DHT22;3875;46.562;4.898;2022-12-18T02:47:48;-1.40;97.60
7666;DHT22;3875;46.562;4.898;2022-12-18T02:53:17;-1.30;97.60
7666;DHT22;3875;46.562;4.898;2022-12-18T03:04:30;-1.30;98.10
7666;DHT22;3875;46.562;4.898;2022-12-18T03:07:02;-1.30;97.90
7666;DHT22;3875;46.562;4.898;2022-12-18T03:09:33;-1.30;97.90
7666;DHT22;3875;46.562;4.898;2022-12-18T03:12:14;-1.20;97.80
7666;DHT22;3875;46.562;4.898;2022-12-18T03:14:58;-1.20;97.80
7666;DHT22;3875;46.562;4.898;2022-12-18T03:17:27;-1.20;97.90
7666;DHT22;3875;46.562;4.898;2022-12-18T03:20:00;-1.20;97.90
7666;DHT22;3875;46.562;4.898;2022-12-18T03:22:30;-1.20;98.10
7666;DHT22;3875;46.562;4.898;2022-12-18T03:24:58;-1.20;98.20
7666;DHT22;3875;46.562;4.898;2022-12-18T03:27:28;-1.20;98.10
7666;DHT22;3875;46.562;4.898;2022-12-18T03:30:14;-1.10;98.00
7666;DHT22;3875;46.562;4.898;2022-12-18T03:32:53;-1.10;98.00
7666;DHT22;3875;46.562;4.898;2022-12-18T03:35:26;-1.10;98.00
7666;DHT22;3875;46.562;4.898;2022-12-18T03:37:54;-1.10;98.00
7666;DHT22;3875;46.562;4.898;2022-12-18T03:40:26;-1.10;98.00
7666;DHT22;3875;46.562;4.898;2022-12-18T03:43:04;-1.00;97.80
7666;DHT22;3875;46.562;4.898;2022-12-18T03:45:37;-1.10;97.70
7666;DHT22;3875;46.562;4.898;2022-12-18T03:48:12;-1.10;97.70
7666;DHT22;3875;46.562;4.898;2022-12-18T03:55:57;-1.10;97.70
7666;DHT22;3875;46.562;4.898;2022-12-18T03:58:25;-1.10;97.60
7666;DHT22;3875;46.562;4.898;2022-12-18T04:00:53;-1.10;97.60
7666;DHT22;3875;46.562;4.898;2022-12-18T04:03:22;-1.10;97.60
7666;DHT22;3875;46.562;4.898;2022-12-18T04:05:51;-1.10;97.60
7666;DHT22;3875;46.562;4.898;2022-12-18T04:08:18;-1.10;97.60
7666;DHT22;3875;46.562;4.898;2022-12-18T04:10:44;-1.00;97.70
7666;DHT22;3875;46.562;4.898;2022-12-18T04:13:09;-1.00;97.60
7666;DHT22;3875;46.562;4.898;2022-12-18T04:15:36;-1.00;97.50
7666;DHT22;3875;46.562;4.898;2022-12-18T04:18:02;-1.00;97.50
7666;DHT22;3875;46.562;4.898;2022-12-18T04:20:29;-1.10;97.50
7666;DHT22;3875;46.562;4.898;2022-12-18T04:22:54;-1.10;97.60
7666;DHT22;3875;46.562;4.898;2022-12-18T04:25:20;-1.10;97.60
7666;DHT22;3875;46.562;4.898;2022-12-18T04:27:45;-1.10;97.60
7666;DHT22;3875;46.562;4.898;2022-12-18T04:30:11;-1.10;97.70
7666;DHT22;3875;46.562;4.898;2022-12-18T04:32:37;-1.10;97.70
7666;DHT22;3875;46.562;4.898;2022-12-18T04:35:03;-1.00;97.70
7666;DHT22;3875;46.562;4.898;2022-12-18T04:37:31;-1.10;97.70
7666;DHT22;3875;46.562;4.898;2022-12-18T04:39:57;-1.00;97.70
7666;DHT22;3875;46.562;4.898;2022-12-18T04:42:23;-1.00;97.70
7666;DHT22;3875;46.562;4.898;2022-12-18T04:44:49;-1.00;97.70
7666;DHT22;3875;46.562;4.898;2022-12-18T04:47:14;-1.00;97.80
7666;DHT22;3875;46.562;4.898;2022-12-18T04:49:40;-1.00;97.80
7666;DHT22;3875;46.562;4.898;2022-12-18T04:52:09;-0.90;97.80
7666;DHT22;3875;46.562;4.898;2022-12-18T04:54:35;-0.90;97.80
7666;DHT22;3875;46.562;4.898;2022-12-18T04:57:00;-0.90;97.90
7666;DHT22;3875;46.562;4.898;2022-12-18T04:59:26;-0.90;97.80
7666;DHT22;3875;46.562;4.898;2022-12-18T05:01:51;-0.90;97.60
7666;DHT22;3875;46.562;4.898;2022-12-18T05:04:17;-0.90;97.80
7666;DHT22;3875;46.562;4.898;2022-12-18T05:06:43;-0.90;97.80
7666;DHT22;3875;46.562;4.898;2022-12-18T05:09:09;-0.90;98.00
7666;DHT22;3875;46.562;4.898;2022-12-18T05:11:37;-0.90;98.00
7666;DHT22;3875;46.562;4.898;2022-12-18T05:14:03;-0.90;98.00
7666;DHT22;3875;46.562;4.898;2022-12-18T05:16:28;-0.90;97.90
7666;DHT22;3875;46.562;4.898;2022-12-18T05:18:54;-0.90;98.00
7666;DHT22;3875;46.562;4.898;2022-12-18T05:21:20;-0.90;98.00
7666;DHT22;3875;46.562;4.898;2022-12-18T05:23:45;-0.90;98.10
7666;DHT22;3875;46.562;4.898;2022-12-18T05:26:16;-0.90;98.20
7666;DHT22;3875;46.562;4.898;2022-12-18T05:28:42;-0.90;98.20
7666;DHT22;3875;46.562;4.898;2022-12-18T05:31:08;-0.90;98.20
7666;DHT22;3875;46.562;4.898;2022-12-18T05:33:34;-0.90;98.20
7666;DHT22;3875;46.562;4.898;2022-12-18T05:36:07;-0.90;98.30
7666;DHT22;3875;46.562;4.898;2022-12-18T05:38:36;-0.90;98.30
7666;DHT22;3875;46.562;4.898;2022-12-18T05:41:02;-0.80;98.30
7666;DHT22;3875;46.562;4.898;2022-12-18T05:43:28;-0.80;98.30
7666;DHT22;3875;46.562;4.898;2022-12-18T05:45:54;-0.80;98.30
7666;DHT22;3875;46.562;4.898;2022-12-18T05:48:21;-0.80;98.20
7666;DHT22;3875;46.562;4.898;2022-12-18T05:50:48;-0.80;98.20
7666;DHT22;3875;46.562;4.898;2022-12-18T05:53:17;-0.80;98.20
7666;DHT22;3875;46.562;4.898;2022-12-18T05:55:43;-0.80;98.40
7666;DHT22;3875;46.562;4.898;2022-12-18T05:58:11;-0.80;98.50
7666;DHT22;3875;46.562;4.898;2022-12-18T06:00:39;-0.70;98.50
7666;DHT22;3875;46.562;4.898;2022-12-18T06:03:09;-0.70;98.40
7666;DHT22;3875;46.562;4.898;2022-12-18T06:05:42;-0.70;98.40
7666;DHT22;3875;46.562;4.898;2022-12-18T06:08:09;-0.70;98.30
7666;DHT22;3875;46.562;4.898;2022-12-18T06:10:35;-0.70;98.40
7666;DHT22;3875;46.562;4.898;2022-12-18T06:13:01;-0.60;98.40
7666;DHT22;3875;46.562;4.898;2022-12-18T06:15:27;-0.70;98.40
7666;DHT22;3875;46.562;4.898;2022-12-18T06:17:52;-0.60;98.50
7666;DHT22;3875;46.562;4.898;2022-12-18T06:20:18;-0.60;98.60
7666;DHT22;3875;46.562;4.898;2022-12-18T06:22:44;-0.70;98.60
7666;DHT22;3875;46.562;4.898;2022-12-18T06:25:10;-0.70;98.60
7666;DHT22;3875;46.562;4.898;2022-12-18T06:27:36;-0.60;98.60
7666;DHT22;3875;46.562;4.898;2022-12-18T06:30:02;-0.60;98.60
7666;DHT22;3875;46.562;4.898;2022-12-18T06:32:28;-0.60;98.60
7666;DHT22;3875;46.562;4.898;2022-12-18T06:34:53;-0.60;98.60
7666;DHT22;3875;46.562;4.898;2022-12-18T06:37:21;-0.60;98.60
7666;DHT22;3875;46.562;4.898;2022-12-18T06:39:46;-0.50;98.60
7666;DHT22;3875;46.562;4.898;2022-12-18T06:42:12;-0.50;98.60
7666;DHT22;3875;46.562;4.898;2022-12-18T06:44:38;-0.50;98.60
7666;DHT22;3875;46.562;4.898;2022-12-18T06:47:04;-0.50;98.60
7666;DHT22;3875;46.562;4.898;2022-12-18T06:49:29;-0.50;98.60
7666;DHT22;3875;46.562;4.898;2022-12-18T06:51:55;-0.40;98.60
7666;DHT22;3875;46.562;4.898;2022-12-18T06:54:21;-0.50;98.60
7666;DHT22;3875;46.562;4.898;2022-12-18T06:56:46;-0.50;98.60
7666;DHT22;3875;46.562;4.898;2022-12-18T06:59:13;-0.50;98.60
7666;DHT22;3875;46.562;4.898;2022-12-18T07:01:39;-0.50;98.60
7666;DHT22;3875;46.562;4.898;2022-12-18T07:04:05;-0.50;98.60
7666;DHT22;3875;46.562;4.898;2022-12-18T07:06:31;-0.40;98.60
7666;DHT22;3875;46.562;4.898;2022-12-18T07:08:57;-0.40;98.60
7666;DHT22;3875;46.562;4.898;2022-12-18T07:11:23;-0.40;98.60
7666;DHT22;3875;46.562;4.898;2022-12-18T07:13:48;-0.40;98.60
7666;DHT22;3875;46.562;4.898;2022-12-18T07:16:17;-0.30;98.60
7666;DHT22;3875;46.562;4.898;2022-12-18T07:18:43;-0.30;98.60
7666;DHT22;3875;46.562;4.898;2022-12-18T07:21:12;-0.30;98.60
7666;DHT22;3875;46.562;4.898;2022-12-18T07:23:38;-0.30;98.60
7666;DHT22;3875;46.562;4.898;2022-12-18T07:26:04;-0.20;98.60
7666;DHT22;3875;46.562;4.898;2022-12-18T07:28:32;-0.30;98.60
7666;DHT22;3875;46.562;4.898;2022-12-18T07:30:58;-0.30;98.60
7666;DHT22;3875;46.562;4.898;2022-12-18T07:33:24;-0.30;98.60
7666;DHT22;3875;46.562;4.898;2022-12-18T07:35:51;-0.20;98.60
7666;DHT22;3875;46.562;4.898;2022-12-18T07:38:16;-0.20;98.60
7666;DHT22;3875;46.562;4.898;2022-12-18T07:40:42;-0.20;98.60
7666;DHT22;3875;46.562;4.898;2022-12-18T07:43:07;-0.10;98.60
7666;DHT22;3875;46.562;4.898;2022-12-18T07:45:33;-0.10;98.60
7666;DHT22;3875;46.562;4.898;2022-12-18T07:47:59;-0.10;98.60
7666;DHT22;3875;46.562;4.898;2022-12-18T07:50:24;-0.10;98.60
7666;DHT22;3875;46.562;4.898;2022-12-18T07:52:50;0.00;98.60
7666;DHT22;3875;46.562;4.898;2022-12-18T07:55:16;-0.10;98.60
7666;DHT22;3875;46.562;4.898;2022-12-18T07:57:41;-0.10;98.60
7666;DHT22;3875;46.562;4.898;2022-12-18T08:00:08;-0.10;98.60
7666;DHT22;3875;46.562;4.898;2022-12-18T08:02:33;0.00;98.60
7666;DHT22;3875;46.562;4.898;2022-12-18T08:04:59;0.00;98.60
7666;DHT22;3875;46.562;4.898;2022-12-18T08:07:25;0.00;98.60
7666;DHT22;3875;46.562;4.898;2022-12-18T08:09:50;0.00;98.60
7666;DHT22;3875;46.562;4.898;2022-12-18T08:12:16;0.00;98.60
7666;DHT22;3875;46.562;4.898;2022-12-18T08:14:42;0.00;98.60
7666;DHT22;3875;46.562;4.898;2022-12-18T08:17:07;0.00;98.60
7666;DHT22;3875;46.562;4.898;2022-12-18T08:19:33;0.00;98.60
7666;DHT22;3875;46.562;4.898;2022-12-18T08:21:59;0.00;98.60
7666;DHT22;3875;46.562;4.898;2022-12-18T08:24:25;0.00;98.60
7666;DHT22;3875;46.562;4.898;2022-12-18T08:26:51;0.00;98.60
7666;DHT22;3875;46.562;4.898;2022-12-18T08:29:16;0.10;98.60
7666;DHT22;3875;46.562;4.898;2022-12-18T08:31:42;0.10;98.60
7666;DHT22;3875;46.562;4.898;2022-12-18T08:34:08;0.10;98.60
7666;DHT22;3875;46.562;4.898;2022-12-18T08:36:34;0.20;98.60
7666;DHT22;3875;46.562;4.898;2022-12-18T08:39:00;0.20;98.60
7666;DHT22;3875;46.562;4.898;2022-12-18T08:41:26;0.30;98.60
7666;DHT22;3875;46.562;4.898;2022-12-18T08:43:51;0.30;98.60
7666;DHT22;3875;46.562;4.898;2022-12-18T08:46:41;0.40;98.60
7666;DHT22;3875;46.562;4.898;2022-12-18T08:49:08;0.40;98.60
7666;DHT22;3875;46.562;4.898;2022-12-18T08:51:35;0.40;98.60
7666;DHT22;3875;46.562;4.898;2022-12-18T08:54:01;0.50;98.60
7666;DHT22;3875;46.562;4.898;2022-12-18T08:56:27;0.50;98.60
7666;DHT22;3875;46.562;4.898;2022-12-18T08:58:54;0.50;98.60
7666;DHT22;3875;46.562;4.898;2022-12-18T09:01:20;0.60;98.60
7666;DHT22;3875;46.562;4.898;2022-12-18T09:03:46;0.60;98.60
7666;DHT22;3875;46.562;4.898;2022-12-18T09:06:14;0.60;98.60
7666;DHT22;3875;46.562;4.898;2022-12-18T09:08:41;0.70;98.60
7666;DHT22;3875;46.562;4.898;2022-12-18T09:11:18;0.70;98.60
7666;DHT22;3875;46.562;4.898;2022-12-18T09:13:44;0.80;98.60
7666;DHT22;3875;46.562;4.898;2022-12-18T09:16:09;0.80;98.50
7666;DHT22;3875;46.562;4.898;2022-12-18T09:18:35;0.90;98.40
7666;DHT22;3875;46.562;4.898;2022-12-18T09:21:26;0.90;98.30
7666;DHT22;3875;46.562;4.898;2022-12-18T09:23:53;1.00;98.20
7666;DHT22;3875;46.562;4.898;2022-12-18T09:26:23;1.00;98.20
7666;DHT22;3875;46.562;4.898;2022-12-18T09:28:50;1.10;98.00
7666;DHT22;3875;46.562;4.898;2022-12-18T09:31:18;1.10;98.10
7666;DHT22;3875;46.562;4.898;2022-12-18T09:33:44;1.20;97.80
7666;DHT22;3875;46.562;4.898;2022-12-18T09:36:13;1.20;97.50
7666;DHT22;3875;46.562;4.898;2022-12-18T09:38:39;1.20;97.70
7666;DHT22;3875;46.562;4.898;2022-12-18T09:41:41;1.20;97.50
7666;DHT22;3875;46.562;4.898;2022-12-18T09:44:41;1.30;97.50
7666;DHT22;3875;46.562;4.898;2022-12-18T09:49:50;1.30;97.30
7666;DHT22;3875;46.562;4.898;2022-12-18T09:52:25;1.30;97.40
7666;DHT22;3875;46.562;4.898;2022-12-18T09:54:57;1.30;97.30
7666;DHT22;3875;46.562;4.898;2022-12-18T09:57:25;1.30;97.40
7666;DHT22;3875;46.562;4.898;2022-12-18T09:59:59;1.40;97.30
7666;DHT22;3875;46.562;4.898;2022-12-18T10:02:30;1.40;97.20
7666;DHT22;3875;46.562;4.898;2022-12-18T10:05:12;1.40;97.40
7666;DHT22;3875;46.562;4.898;2022-12-18T10:08:03;1.50;97.30
7666;DHT22;3875;46.562;4.898;2022-12-18T10:13:31;1.60;96.80
7666;DHT22;3875;46.562;4.898;2022-12-18T10:16:36;1.60;96.70
7666;DHT22;3875;46.562;4.898;2022-12-18T10:19:18;1.60;96.80
7666;DHT22;3875;46.562;4.898;2022-12-18T10:24:35;1.80;96.70
7666;DHT22;3875;46.562;4.898;2022-12-18T10:27:24;1.90;96.60
7666;DHT22;3875;46.562;4.898;2022-12-18T10:29:51;2.00;96.50
7666;DHT22;3875;46.562;4.898;2022-12-18T10:32:27;2.10;96.30
7666;DHT22;3875;46.562;4.898;2022-12-18T10:34:55;2.10;96.20
7666;DHT22;3875;46.562;4.898;2022-12-18T10:37:25;2.30;96.00
7666;DHT22;3875;46.562;4.898;2022-12-18T10:40:12;2.20;95.10
7666;DHT22;3875;46.562;4.898;2022-12-18T10:42:38;2.20;95.10
7666;DHT22;3875;46.562;4.898;2022-12-18T10:45:16;2.10;94.90
7666;DHT22;3875;46.562;4.898;2022-12-18T10:47:47;2.10;95.10
7666;DHT22;3875;46.562;4.898;2022-12-18T10:50:33;2.10;95.50
7666;DHT22;3875;46.562;4.898;2022-12-18T10:53:01;2.20;95.30
7666;DHT22;3875;46.562;4.898;2022-12-18T10:55:37;2.20;95.30
7666;DHT22;3875;46.562;4.898;2022-12-18T11:03:46;2.30;95.20
7666;DHT22;3875;46.562;4.898;2022-12-18T11:06:14;2.40;95.10
7666;DHT22;3875;46.562;4.898;2022-12-18T11:08:41;2.40;94.50
7666;DHT22;3875;46.562;4.898;2022-12-18T11:11:20;2.40;94.60
7666;DHT22;3875;46.562;4.898;2022-12-18T11:14:17;2.40;94.80
7666;DHT22;3875;46.562;4.898;2022-12-18T11:16:48;2.40;94.60
7666;DHT22;3875;46.562;4.898;2022-12-18T11:19:36;2.40;94.60
7666;DHT22;3875;46.562;4.898;2022-12-18T11:22:33;2.50;94.70
7666;DHT22;3875;46.562;4.898;2022-12-18T11:31:28;2.80;94.30
7666;DHT22;3875;46.562;4.898;2022-12-18T11:36:26;3.30;94.20
7666;DHT22;3875;46.562;4.898;2022-12-18T11:38:54;3.50;93.60
7666;DHT22;3875;46.562;4.898;2022-12-18T11:42:04;3.60;93.10
7666;DHT22;3875;46.562;4.898;2022-12-18T11:47:29;3.90;93.00
7666;DHT22;3875;46.562;4.898;2022-12-18T11:50:01;4.00;91.90
7666;DHT22;3875;46.562;4.898;2022-12-18T11:52:36;4.00;91.40
7666;DHT22;3875;46.562;4.898;2022-12-18T12:00:36;4.10;91.50
7666;DHT22;3875;46.562;4.898;2022-12-18T12:09:31;4.40;90.90
7666;DHT22;3875;46.562;4.898;2022-12-18T12:14:51;4.40;90.00
7666;DHT22;3875;46.562;4.898;2022-12-18T12:17:42;4.30;90.70
7666;DHT22;3875;46.562;4.898;2022-12-18T12:20:31;4.40;90.70
7666;DHT22;3875;46.562;4.898;2022-12-18T12:23:22;4.50;91.30
7666;DHT22;3875;46.562;4.898;2022-12-18T12:26:14;4.60;90.70
7666;DHT22;3875;46.562;4.898;2022-12-18T12:28:59;4.60;90.60
7666;DHT22;3875;46.562;4.898;2022-12-18T12:34:17;4.70;90.20
7666;DHT22;3875;46.562;4.898;2022-12-18T12:37:01;4.70;90.20
7666;DHT22;3875;46.562;4.898;2022-12-18T12:39:33;4.60;90.40
7666;DHT22;3875;46.562;4.898;2022-12-18T12:42:01;4.60;90.60
7666;DHT22;3875;46.562;4.898;2022-12-18T12:44:51;4.70;90.70
7666;DHT22;3875;46.562;4.898;2022-12-18T12:47:25;4.70;90.50
7666;DHT22;3875;46.562;4.898;2022-12-18T12:49:52;4.80;90.70
7666;DHT22;3875;46.562;4.898;2022-12-18T12:52:30;4.80;90.80
7666;DHT22;3875;46.562;4.898;2022-12-18T12:54:56;4.90;90.70
7666;DHT22;3875;46.562;4.898;2022-12-18T12:57:34;4.90;90.40
7666;DHT22;3875;46.562;4.898;2022-12-18T13:00:11;4.90;90.40
7666;DHT22;3875;46.562;4.898;2022-12-18T13:05:50;4.90;90.40
7666;DHT22;3875;46.562;4.898;2022-12-18T13:08:24;4.90;90.70
7666;DHT22;3875;46.562;4.898;2022-12-18T13:10:51;4.90;90.70
7666;DHT22;3875;46.562;4.898;2022-12-18T13:13:51;4.90;90.80
7666;DHT22;3875;46.562;4.898;2022-12-18T13:16:23;5.00;90.60
7666;DHT22;3875;46.562;4.898;2022-12-18T13:18:50;4.90;90.80
7666;DHT22;3875;46.562;4.898;2022-12-18T13:21:34;5.00;90.80
7666;DHT22;3875;46.562;4.898;2022-12-18T13:24:26;5.00;90.90
7666;DHT22;3875;46.562;4.898;2022-12-18T13:26:53;5.10;90.90
7666;DHT22;3875;46.562;4.898;2022-12-18T13:29:43;5.10;91.00
7666;DHT22;3875;46.562;4.898;2022-12-18T13:32:24;5.10;90.80
7666;DHT22;3875;46.562;4.898;2022-12-18T13:37:52;5.20;90.90
7666;DHT22;3875;46.562;4.898;2022-12-18T13:48:26;5.30;91.00
7666;DHT22;3875;46.562;4.898;2022-12-18T13:50:59;5.40;90.80
7666;DHT22;3875;46.562;4.898;2022-12-18T13:53:33;5.30;90.60
7666;DHT22;3875;46.562;4.898;2022-12-18T13:55:59;5.30;90.80
7666;DHT22;3875;46.562;4.898;2022-12-18T13:58:25;5.30;91.00
7666;DHT22;3875;46.562;4.898;2022-12-18T14:00:51;5.40;90.90
7666;DHT22;3875;46.562;4.898;2022-12-18T14:03:26;5.40;90.80
7666;DHT22;3875;46.562;4.898;2022-12-18T14:05:59;5.40;90.30
7666;DHT22;3875;46.562;4.898;2022-12-18T14:08:30;5.30;90.60
7666;DHT22;3875;46.562;4.898;2022-12-18T14:10:57;5.30;90.80
7666;DHT22;3875;46.562;4.898;2022-12-18T14:13:28;5.30;90.90
7666;DHT22;3875;46.562;4.898;2022-12-18T14:15:55;5.30;91.00
7666;DHT22;3875;46.562;4.898;2022-12-18T14:20:52;5.30;91.00
7666;DHT22;3875;46.562;4.898;2022-12-18T14:23:39;5.30;91.10
7666;DHT22;3875;46.562;4.898;2022-12-18T14:28:46;5.30;91.20
7666;DHT22;3875;46.562;4.898;2022-12-18T14:31:26;5.30;91.20
7666;DHT22;3875;46.562;4.898;2022-12-18T14:33:52;5.30;91.30
7666;DHT22;3875;46.562;4.898;2022-12-18T14:36:28;5.30;91.50
7666;DHT22;3875;46.562;4.898;2022-12-18T14:38:58;5.30;91.50
7666;DHT22;3875;46.562;4.898;2022-12-18T14:41:25;5.30;91.60
7666;DHT22;3875;46.562;4.898;2022-12-18T14:43:53;5.30;91.50
7666;DHT22;3875;46.562;4.898;2022-12-18T14:49:03;5.40;91.70
7666;DHT22;3875;46.562;4.898;2022-12-18T14:51:31;5.40;91.60
7666;DHT22;3875;46.562;4.898;2022-12-18T14:54:04;5.40;91.30
7666;DHT22;3875;46.562;4.898;2022-12-18T14:56:46;5.40;91.10
7666;DHT22;3875;46.562;4.898;2022-12-18T14:59:19;5.30;91.20
7666;DHT22;3875;46.562;4.898;2022-12-18T15:01:48;5.30;91.30
7666;DHT22;3875;46.562;4.898;2022-12-18T15:04:30;5.30;91.30
7666;DHT22;3875;46.562;4.898;2022-12-18T15:09:35;5.10;91.60
7666;DHT22;3875;46.562;4.898;2022-12-18T15:12:02;5.00;91.60
7666;DHT22;3875;46.562;4.898;2022-12-18T15:17:04;4.90;91.90
7666;DHT22;3875;46.562;4.898;2022-12-18T15:19:51;4.90;92.10
7666;DHT22;3875;46.562;4.898;2022-12-18T15:22:29;4.80;92.20
7666;DHT22;3875;46.562;4.898;2022-12-18T15:24:56;4.80;92.40
7666;DHT22;3875;46.562;4.898;2022-12-18T15:32:36;4.70;92.60
7666;DHT22;3875;46.562;4.898;2022-12-18T15:35:23;4.70;92.60
7666;DHT22;3875;46.562;4.898;2022-12-18T15:37:51;4.70;92.70
7666;DHT22;3875;46.562;4.898;2022-12-18T15:40:23;4.60;92.80
7666;DHT22;3875;46.562;4.898;2022-12-18T15:42:52;4.60;92.90
7666;DHT22;3875;46.562;4.898;2022-12-18T15:45:38;4.60;92.90
7666;DHT22;3875;46.562;4.898;2022-12-18T15:48:19;4.60;93.00
7666;DHT22;3875;46.562;4.898;2022-12-18T15:50:45;4.50;93.10
7666;DHT22;3875;46.562;4.898;2022-12-18T15:53:11;4.50;93.10
7666;DHT22;3875;46.562;4.898;2022-12-18T15:55:37;4.50;93.20
7666;DHT22;3875;46.562;4.898;2022-12-18T15:58:22;4.50;93.30
7666;DHT22;3875;46.562;4.898;2022-12-18T16:00:47;4.40;93.40
7666;DHT22;3875;46.562;4.898;2022-12-18T16:03:13;4.40;93.40
7666;DHT22;3875;46.562;4.898;2022-12-18T16:05:39;4.40;93.60
7666;DHT22;3875;46.562;4.898;2022-12-18T16:08:05;4.40;93.60
7666;DHT22;3875;46.562;4.898;2022-12-18T16:10:30;4.40;93.60
7666;DHT22;3875;46.562;4.898;2022-12-18T16:12:56;4.40;93.70
7666;DHT22;3875;46.562;4.898;2022-12-18T16:15:22;4.30;93.80
7666;DHT22;3875;46.562;4.898;2022-12-18T16:17:48;4.40;93.80
7666;DHT22;3875;46.562;4.898;2022-12-18T16:20:18;4.30;93.70
7666;DHT22;3875;46.562;4.898;2022-12-18T16:22:46;4.30;93.60
7666;DHT22;3875;46.562;4.898;2022-12-18T16:25:24;4.30;93.60
7666;DHT22;3875;46.562;4.898;2022-12-18T16:27:50;4.30;93.80
7666;DHT22;3875;46.562;4.898;2022-12-18T16:30:19;4.30;93.80
7666;DHT22;3875;46.562;4.898;2022-12-18T16:32:45;4.20;93.80
7666;DHT22;3875;46.562;4.898;2022-12-18T16:35:13;4.20;93.90
7666;DHT22;3875;46.562;4.898;2022-12-18T16:37:39;4.20;93.90
7666;DHT22;3875;46.562;4.898;2022-12-18T16:40:07;4.20;93.90
7666;DHT22;3875;46.562;4.898;2022-12-18T16:42:35;4.20;94.00
7666;DHT22;3875;46.562;4.898;2022-12-18T16:45:02;4.10;94.30
7666;DHT22;3875;46.562;4.898;2022-12-18T16:47:27;4.20;94.30
7666;DHT22;3875;46.562;4.898;2022-12-18T16:49:53;4.20;94.20
7666;DHT22;3875;46.562;4.898;2022-12-18T16:52:20;4.20;94.20
7666;DHT22;3875;46.562;4.898;2022-12-18T16:54:46;4.20;94.10
7666;DHT22;3875;46.562;4.898;2022-12-18T16:57:15;4.10;94.10
7666;DHT22;3875;46.562;4.898;2022-12-18T16:59:42;4.10;94.20
7666;DHT22;3875;46.562;4.898;2022-12-18T17:02:16;4.10;94.30
7666;DHT22;3875;46.562;4.898;2022-12-18T17:04:43;4.10;94.30
7666;DHT22;3875;46.562;4.898;2022-12-18T17:07:09;4.10;94.20
7666;DHT22;3875;46.562;4.898;2022-12-18T17:09:37;4.10;94.20
7666;DHT22;3875;46.562;4.898;2022-12-18T17:12:03;4.10;94.30
7666;DHT22;3875;46.562;4.898;2022-12-18T17:14:28;4.00;94.50
7666;DHT22;3875;46.562;4.898;2022-12-18T17:16:55;4.00;94.50
7666;DHT22;3875;46.562;4.898;2022-12-18T17:19:25;3.90;94.70
7666;DHT22;3875;46.562;4.898;2022-12-18T17:21:51;3.80;94.90
7666;DHT22;3875;46.562;4.898;2022-12-18T17:24:17;3.80;95.10
7666;DHT22;3875;46.562;4.898;2022-12-18T17:26:43;3.80;95.10
7666;DHT22;3875;46.562;4.898;2022-12-18T17:29:15;3.80;95.10
7666;DHT22;3875;46.562;4.898;2022-12-18T17:31:42;3.90;95.10
7666;DHT22;3875;46.562;4.898;2022-12-18T17:34:10;3.90;95.10
7666;DHT22;3875;46.562;4.898;2022-12-18T17:36:36;4.00;95.00
7666;DHT22;3875;46.562;4.898;2022-12-18T17:39:03;4.00;95.00
7666;DHT22;3875;46.562;4.898;2022-12-18T17:41:30;4.00;95.00
7666;DHT22;3875;46.562;4.898;2022-12-18T17:44:01;4.00;95.00
7666;DHT22;3875;46.562;4.898;2022-12-18T17:46:29;4.00;94.80
7666;DHT22;3875;46.562;4.898;2022-12-18T17:48:56;4.10;94.60
7666;DHT22;3875;46.562;4.898;2022-12-18T17:51:22;4.00;94.70
7666;DHT22;3875;46.562;4.898;2022-12-18T17:53:48;4.00;94.80
7666;DHT22;3875;46.562;4.898;2022-12-18T17:56:16;4.00;94.90
7666;DHT22;3875;46.562;4.898;2022-12-18T17:58:42;4.00;94.90
7666;DHT22;3875;46.562;4.898;2022-12-18T18:01:08;4.00;95.00
7666;DHT22;3875;46.562;4.898;2022-12-18T18:03:35;4.00;94.80
7666;DHT22;3875;46.562;4.898;2022-12-18T18:06:02;4.00;94.80
7666;DHT22;3875;46.562;4.898;2022-12-18T18:08:28;4.00;94.80
7666;DHT22;3875;46.562;4.898;2022-12-18T18:10:54;4.00;94.80
7666;DHT22;3875;46.562;4.898;2022-12-18T18:13:40;4.00;94.80
7666;DHT22;3875;46.562;4.898;2022-12-18T18:16:24;4.00;94.80
7666;DHT22;3875;46.562;4.898;2022-12-18T18:18:50;4.00;94.90